Yongning, China
Current Conditions -  °F | °C
As of 7:00 AM on Tuesday 21 Oct 2014 (Local Time) from ZGNN Reporting Station
Haze Haze  
Wind Chill: 75°   Ceiling: 4300
Heat Index: 75°   Visibility: 2.5mi
Dew Point: 73°   Wind: 2mph
Humidity: 94%   Direction: 40°NE
Pressure: 30"   Gusts: NA
Location:  22.75°N, 108.48°E
Report Text: ZGNN 202300Z 04001MPS 4000 BR SCT007 BKN043 24/23 Q1016 NOSIG
Loading
Personal Weather Stations






























Interactive Weather Map
Tropical Storm Tracking
New forecast layout! Learn more

10-Day Weather Forecast

Advertisements
Track Severe Weather on mobile